Croton Hudson, New York
Current Conditions -  °F | °C
As of 2:56 PM on Sunday 21 Dec 2014 (Local Time) from KHPN Reporting Station
Overcast Overcast  
Wind Chill: 28°   Ceiling: 800
Heat Index: 34°   Visibility: 9mi
Dew Point: 29°   Wind: 7mph
Humidity: 82%   Direction: 330°NNW
Pressure: 30.26"   Gusts: NA
Location:  41.2219°N, 73.887°W
Report Text: KHPN 211956Z 33006KT 9SM BKN008 OVC016 01/M02 A3026 RMK AO2 SNE42 SLP254 P0000 T00111017
Loading
Personal Weather Stations






























Interactive Weather Map New forecast layout! Learn more

10-Day Weather Forecast

Advertisements
Track Severe Weather on mobile